createdAt,value
2022-08-08T00:00:54.304Z,16.00
2022-08-08T00:00:56.012Z,16.10
2022-08-08T00:02:30.842Z,15.90
2022-08-08T00:03:47.484Z,15.90
2022-08-08T00:05:09.524Z,15.80
2022-08-08T00:06:28.498Z,15.80
2022-08-08T00:07:47.296Z,15.80
2022-08-08T00:08:53.337Z,15.70
2022-08-08T00:10:06.044Z,15.70
2022-08-08T00:12:07.134Z,15.70
2022-08-08T00:14:15.310Z,15.70
2022-08-08T00:14:59.714Z,15.80
2022-08-08T00:16:08.746Z,15.80
2022-08-08T00:17:22.965Z,15.80
2022-08-08T00:18:45.299Z,15.80
2022-08-08T00:19:59.120Z,15.80
2022-08-08T00:21:06.003Z,15.70
2022-08-08T00:22:15.751Z,15.60
2022-08-08T00:23:47.440Z,15.50
2022-08-08T00:24:57.759Z,15.30
2022-08-08T00:26:04.707Z,15.40
2022-08-08T00:27:10.584Z,15.40
2022-08-08T00:28:35.400Z,15.40
2022-08-08T00:30:11.428Z,15.40
2022-08-08T00:32:33.009Z,15.50
2022-08-08T00:32:51.807Z,15.60
2022-08-08T00:34:38.458Z,15.60
2022-08-08T00:36:08.887Z,15.60
2022-08-08T00:37:48.248Z,15.60
2022-08-08T00:41:06.896Z,15.70
2022-08-08T00:41:07.588Z,15.70
2022-08-08T00:42:09.230Z,15.60
2022-08-08T00:43:41.641Z,15.60
2022-08-08T00:45:20.887Z,15.70
2022-08-08T00:46:56.817Z,15.70
2022-08-08T00:48:33.902Z,15.70
2022-08-08T00:49:38.384Z,15.70
2022-08-08T00:51:24.004Z,15.70
2022-08-08T00:52:39.083Z,15.70
2022-08-08T00:54:17.431Z,15.60
2022-08-08T00:55:54.193Z,15.60
2022-08-08T00:57:45.767Z,15.60
2022-08-08T00:59:44.433Z,15.60
2022-08-08T01:01:15.810Z,15.60
2022-08-08T01:04:01.386Z,15.60
2022-08-08T01:04:43.209Z,15.60
2022-08-08T01:06:05.308Z,15.50
2022-08-08T01:07:55.634Z,15.40
2022-08-08T01:09:36.092Z,15.40
2022-08-08T01:11:14.119Z,15.20
2022-08-08T01:13:09.687Z,15.20
2022-08-08T01:14:54.969Z,15.20
2022-08-08T01:16:48.326Z,15.20
2022-08-08T01:18:25.333Z,15.30
2022-08-08T01:20:14.946Z,15.30
2022-08-08T01:22:03.828Z,15.30
2022-08-08T01:24:02.812Z,15.30
2022-08-08T01:25:02.657Z,15.30
2022-08-08T01:26:25.314Z,15.30
2022-08-08T01:27:50.864Z,15.30
2022-08-08T01:30:53.992Z,15.00
2022-08-08T01:32:33.599Z,15.00
2022-08-08T01:34:04.830Z,15.00
2022-08-08T01:35:18.125Z,15.10
2022-08-08T01:37:13.793Z,15.10
2022-08-08T01:38:53.098Z,15.10
2022-08-08T01:40:06.173Z,15.00
2022-08-08T01:41:22.366Z,14.90
2022-08-08T01:42:50.206Z,14.90
2022-08-08T01:44:17.358Z,14.80
2022-08-08T01:45:57.353Z,14.70
2022-08-08T01:48:15.463Z,14.80
2022-08-08T01:49:03.792Z,14.90
2022-08-08T01:50:42.643Z,14.90
2022-08-08T01:52:44.095Z,14.80
2022-08-08T01:55:17.136Z,14.70
2022-08-08T01:56:27.371Z,14.90
2022-08-08T01:58:10.947Z,14.80
2022-08-08T01:59:38.295Z,14.90
2022-08-08T02:01:15.872Z,14.90
2022-08-08T02:02:42.385Z,15.00
2022-08-08T02:03:54.740Z,14.90
2022-08-08T02:05:23.407Z,14.90
2022-08-08T02:07:10.419Z,14.90
2022-08-08T02:08:25.755Z,14.90
2022-08-08T02:10:04.132Z,14.90
2022-08-08T02:11:58.794Z,14.90
2022-08-08T02:13:53.924Z,14.90
2022-08-08T02:15:12.947Z,14.90
2022-08-08T02:16:28.605Z,14.90
2022-08-08T02:17:53.638Z,14.90
2022-08-08T02:19:26.892Z,14.90
2022-08-08T02:21:01.781Z,14.80
2022-08-08T02:22:34.087Z,14.80
2022-08-08T02:24:00.253Z,14.60
2022-08-08T02:25:43.546Z,14.60
2022-08-08T02:27:12.975Z,14.50
2022-08-08T02:28:25.994Z,14.50
2022-08-08T02:30:06.515Z,14.40
2022-08-08T02:31:57.963Z,14.30
2022-08-08T02:33:21.536Z,14.20
2022-08-08T02:35:08.061Z,14.20
2022-08-08T02:36:34.200Z,14.10
2022-08-08T02:37:56.759Z,14.10
2022-08-08T02:39:40.369Z,14.10
2022-08-08T02:42:04.505Z,14.10
2022-08-08T02:44:36.886Z,14.10
2022-08-08T02:45:27.080Z,14.10
2022-08-08T02:47:01.727Z,14.10
2022-08-08T02:48:42.689Z,14.10
2022-08-08T02:49:56.649Z,14.10
2022-08-08T02:51:07.329Z,14.10
2022-08-08T02:52:38.578Z,14.10
2022-08-08T02:54:15.996Z,14.00
2022-08-08T02:56:08.759Z,14.00
2022-08-08T02:57:21.455Z,14.10
2022-08-08T02:59:05.884Z,14.00
2022-08-08T03:00:43.083Z,14.10
2022-08-08T03:02:28.803Z,14.10
2022-08-08T03:05:02.374Z,14.10
2022-08-08T03:05:55.835Z,14.10
2022-08-08T03:07:09.033Z,14.10
2022-08-08T03:08:56.104Z,14.10
2022-08-08T03:10:32.567Z,14.10
2022-08-08T03:12:01.638Z,14.00
2022-08-08T03:15:56.876Z,14.00
2022-08-08T03:16:02.089Z,14.10
2022-08-08T03:17:06.242Z,14.00
2022-08-08T03:18:56.891Z,14.00
2022-08-08T03:20:07.786Z,14.00
2022-08-08T03:21:14.700Z,13.90
2022-08-08T03:22:38.607Z,13.90
2022-08-08T03:23:56.208Z,13.80
2022-08-08T03:25:04.421Z,13.90
2022-08-08T03:26:22.946Z,13.80
2022-08-08T03:27:35.938Z,13.80
2022-08-08T03:28:46.833Z,13.80
2022-08-08T03:29:57.165Z,13.80
2022-08-08T03:31:13.676Z,13.80
2022-08-08T03:32:41.257Z,13.80
2022-08-08T03:33:58.275Z,13.80
2022-08-08T03:35:05.898Z,13.70
2022-08-08T03:36:16.040Z,13.70
2022-08-08T03:38:54.150Z,13.70
2022-08-08T03:38:56.568Z,13.70
2022-08-08T03:40:03.807Z,13.60
2022-08-08T03:41:22.787Z,13.60
2022-08-08T03:42:30.869Z,13.60
2022-08-08T03:43:38.424Z,13.50
2022-08-08T03:44:44.895Z,13.50
2022-08-08T03:46:07.018Z,13.50
2022-08-08T03:47:19.461Z,13.50
2022-08-08T03:49:09.072Z,13.50
2022-08-08T03:50:00.360Z,13.50
2022-08-08T03:51:07.006Z,13.40
2022-08-08T03:52:13.114Z,13.40
2022-08-08T03:53:37.838Z,13.30
2022-08-08T03:55:02.222Z,13.30
2022-08-08T03:56:04.601Z,13.30
2022-08-08T03:58:35.615Z,13.30
2022-08-08T03:58:37.889Z,13.20
2022-08-08T04:00:02.766Z,13.30
2022-08-08T04:01:22.991Z,13.20
2022-08-08T04:02:33.233Z,13.30
2022-08-08T04:03:58.639Z,13.30
2022-08-08T04:05:05.047Z,13.40
2022-08-08T04:06:13.215Z,13.30
2022-08-08T04:07:16.404Z,13.30
2022-08-08T04:08:33.171Z,13.40
2022-08-08T04:10:02.892Z,13.40
2022-08-08T04:10:59.824Z,13.40
2022-08-08T04:12:01.815Z,13.40
2022-08-08T04:13:17.440Z,13.40
2022-08-08T04:14:33.789Z,13.40
2022-08-08T04:15:38.342Z,13.50
2022-08-08T04:16:41.441Z,13.50
2022-08-08T04:17:46.405Z,13.50
2022-08-08T04:19:00.934Z,13.50
2022-08-08T04:20:04.643Z,13.50
2022-08-08T04:21:06.607Z,13.30
2022-08-08T04:22:10.215Z,13.20
2022-08-08T04:23:11.843Z,13.30
2022-08-08T04:24:28.272Z,13.30
2022-08-08T04:25:32.729Z,13.30
2022-08-08T04:26:40.268Z,13.30
2022-08-08T04:28:34.391Z,13.30
2022-08-08T04:29:17.787Z,13.40
2022-08-08T04:30:20.183Z,13.40
2022-08-08T04:31:56.906Z,13.30
2022-08-08T04:32:47.974Z,13.30
2022-08-08T04:33:51.863Z,13.40
2022-08-08T04:34:58.562Z,13.40
2022-08-08T04:36:00.512Z,13.40
2022-08-08T04:37:03.842Z,13.40
2022-08-08T04:38:06.116Z,13.40
2022-08-08T04:40:04.290Z,13.40
2022-08-08T04:40:33.415Z,13.50
2022-08-08T04:41:37.019Z,13.50
2022-08-08T04:42:55.953Z,13.50
2022-08-08T04:43:59.063Z,13.50
2022-08-08T04:45:01.272Z,13.50
2022-08-08T04:46:02.977Z,13.50
2022-08-08T04:47:05.567Z,13.60
2022-08-08T04:48:15.109Z,13.60
2022-08-08T04:49:16.849Z,13.60
2022-08-08T04:50:24.768Z,13.60
2022-08-08T04:51:56.834Z,13.60
2022-08-08T04:53:00.873Z,13.60
2022-08-08T04:54:39.720Z,13.70
2022-08-08T04:55:37.902Z,13.70
2022-08-08T04:56:50.029Z,13.70
2022-08-08T04:57:51.736Z,13.80
2022-08-08T04:58:53.365Z,13.80
2022-08-08T04:59:55.630Z,13.80
2022-08-08T05:01:08.801Z,13.90
2022-08-08T05:02:13.775Z,13.80
2022-08-08T05:04:07.608Z,13.80
2022-08-08T05:04:37.772Z,13.80
2022-08-08T05:05:45.103Z,13.80
2022-08-08T05:06:48.184Z,13.80
2022-08-08T05:07:53.870Z,13.80
2022-08-08T05:09:02.786Z,13.80
2022-08-08T05:10:05.493Z,13.80
2022-08-08T05:11:09.522Z,13.80
2022-08-08T05:12:20.572Z,13.80
2022-08-08T05:13:22.804Z,13.80
2022-08-08T05:14:29.133Z,13.90
2022-08-08T05:15:31.535Z,14.00
2022-08-08T05:17:00.519Z,14.00
2022-08-08T05:18:03.263Z,14.00
2022-08-08T05:19:05.709Z,14.00
2022-08-08T05:20:27.353Z,14.10
2022-08-08T05:21:29.466Z,14.10
2022-08-08T05:22:46.173Z,14.20
2022-08-08T05:23:50.670Z,14.30
2022-08-08T05:25:06.360Z,14.30
2022-08-08T05:26:08.130Z,14.10
2022-08-08T05:27:09.803Z,14.20
2022-08-08T05:28:11.572Z,14.20
2022-08-08T05:29:16.346Z,14.20
2022-08-08T05:30:17.960Z,14.20
2022-08-08T05:32:04.231Z,14.20
2022-08-08T05:32:53.789Z,14.40
2022-08-08T05:33:55.546Z,14.40
2022-08-08T05:35:04.632Z,14.40
2022-08-08T05:36:09.334Z,14.40
2022-08-08T05:37:52.298Z,14.40
2022-08-08T05:38:52.687Z,14.40
2022-08-08T05:39:56.068Z,14.50
2022-08-08T05:40:59.016Z,14.50
2022-08-08T05:42:01.246Z,14.50
2022-08-08T05:43:40.109Z,14.50
2022-08-08T05:44:31.199Z,14.40
2022-08-08T05:45:43.012Z,14.40
2022-08-08T05:47:02.938Z,14.40
2022-08-08T05:48:08.597Z,14.50
2022-08-08T05:49:11.691Z,14.50
2022-08-08T05:50:13.457Z,14.50
2022-08-08T05:51:18.154Z,14.60
2022-08-08T05:52:20.329Z,14.70
2022-08-08T05:54:24.482Z,14.70
2022-08-08T05:55:00.988Z,14.80
2022-08-08T05:56:14.673Z,14.70
2022-08-08T05:57:57.562Z,14.70
2022-08-08T05:58:53.998Z,14.60
2022-08-08T06:00:22.482Z,14.70
2022-08-08T06:01:52.748Z,14.70
2022-08-08T06:03:07.444Z,14.60
2022-08-08T06:04:13.764Z,14.70
2022-08-08T06:05:34.731Z,14.70
2022-08-08T06:06:41.970Z,14.90
2022-08-08T06:07:51.229Z,15.00
2022-08-08T06:09:58.071Z,15.10
2022-08-08T06:10:31.659Z,15.20
2022-08-08T06:11:37.054Z,15.30
2022-08-08T06:12:48.155Z,15.30
2022-08-08T06:13:51.593Z,15.40
2022-08-08T06:14:57.749Z,15.40
2022-08-08T06:15:59.661Z,15.50
2022-08-08T06:17:05.626Z,15.40
2022-08-08T06:18:20.612Z,15.50
2022-08-08T06:19:24.303Z,15.50
2022-08-08T06:20:29.488Z,15.60
2022-08-08T06:21:48.405Z,15.60
2022-08-08T06:22:53.600Z,15.70
2022-08-08T06:24:03.664Z,15.70
2022-08-08T06:25:07.895Z,15.80
2022-08-08T06:26:44.954Z,15.70
2022-08-08T06:27:52.912Z,15.70
2022-08-08T06:29:02.727Z,15.80
2022-08-08T06:30:28.433Z,15.80
2022-08-08T06:31:52.460Z,15.90
2022-08-08T06:33:00.957Z,15.90
2022-08-08T06:34:25.669Z,15.90
2022-08-08T06:36:07.274Z,16.00
2022-08-08T06:36:57.049Z,15.90
2022-08-08T06:38:14.069Z,15.90
2022-08-08T06:39:19.602Z,15.90
2022-08-08T06:40:26.749Z,16.00
2022-08-08T06:41:33.279Z,16.00
2022-08-08T06:42:36.317Z,16.00
2022-08-08T06:43:42.688Z,16.00
2022-08-08T06:44:52.280Z,16.10
2022-08-08T06:45:53.955Z,16.10
2022-08-08T06:46:58.001Z,16.10
2022-08-08T06:48:02.284Z,16.10
2022-08-08T06:49:06.711Z,16.10
2022-08-08T06:50:17.618Z,16.10
2022-08-08T06:51:49.022Z,16.10
2022-08-08T06:52:56.973Z,16.20
2022-08-08T06:54:00.773Z,16.30
2022-08-08T06:55:05.601Z,16.30
2022-08-08T06:56:09.028Z,16.20
2022-08-08T06:57:11.005Z,16.20
2022-08-08T06:58:12.941Z,16.20
2022-08-08T06:59:16.834Z,16.20
2022-08-08T07:00:30.335Z,16.30
2022-08-08T07:02:17.157Z,16.40
2022-08-08T07:03:19.641Z,16.40
2022-08-08T07:05:00.560Z,16.60
2022-08-08T07:06:03.783Z,16.60
2022-08-08T07:07:11.124Z,16.60
2022-08-08T07:08:28.960Z,16.70
2022-08-08T07:09:45.456Z,16.70
2022-08-08T07:11:00.067Z,16.70
2022-08-08T07:12:08.830Z,16.70
2022-08-08T07:13:14.657Z,16.80
2022-08-08T07:14:29.731Z,16.70
2022-08-08T07:16:04.496Z,16.80
2022-08-08T07:17:19.704Z,16.90
2022-08-08T07:18:42.931Z,16.90
2022-08-08T07:19:59.901Z,17.10
2022-08-08T07:21:09.978Z,17.10
2022-08-08T07:22:36.092Z,17.20
2022-08-08T07:24:02.958Z,17.20
2022-08-08T07:25:06.928Z,17.30
2022-08-08T07:26:10.505Z,17.20
2022-08-08T07:27:16.752Z,17.20
2022-08-08T07:28:31.626Z,17.20
2022-08-08T07:30:01.895Z,17.20
2022-08-08T07:30:59.008Z,17.20
2022-08-08T07:32:03.096Z,17.20
2022-08-08T07:33:05.753Z,17.30
2022-08-08T07:34:20.486Z,17.40
2022-08-08T07:35:35.440Z,17.50
2022-08-08T07:36:50.230Z,17.50
2022-08-08T07:38:04.948Z,17.50
2022-08-08T07:39:13.339Z,17.50
2022-08-08T07:40:28.779Z,17.60
2022-08-08T07:41:58.636Z,17.60
2022-08-08T07:42:55.298Z,17.70
2022-08-08T07:43:58.838Z,17.90
2022-08-08T07:45:00.654Z,17.90
2022-08-08T07:46:17.863Z,18.00
2022-08-08T07:47:38.742Z,18.10
2022-08-08T07:48:42.069Z,18.20
2022-08-08T07:49:49.279Z,18.20
2022-08-08T07:50:52.460Z,18.20
2022-08-08T07:51:55.629Z,18.30
2022-08-08T07:53:04.955Z,18.30
2022-08-08T07:54:33.261Z,18.40
2022-08-08T07:55:36.774Z,18.50
2022-08-08T07:56:52.189Z,18.60
2022-08-08T07:58:16.252Z,18.70
2022-08-08T07:59:22.902Z,18.80
2022-08-08T08:00:30.211Z,18.90
2022-08-08T08:02:37.091Z,19.00
2022-08-08T08:03:14.276Z,19.10
2022-08-08T08:04:29.083Z,19.10
2022-08-08T08:05:43.549Z,19.10
2022-08-08T08:06:47.056Z,19.20
2022-08-08T08:07:52.934Z,19.20
2022-08-08T08:09:03.010Z,19.30
2022-08-08T08:10:12.548Z,19.50
2022-08-08T08:11:21.175Z,19.50
2022-08-08T08:12:35.363Z,19.50
2022-08-08T08:14:08.617Z,19.50
2022-08-08T08:15:16.226Z,19.70
2022-08-08T08:16:28.375Z,19.70
2022-08-08T08:17:47.545Z,19.80
2022-08-08T08:18:58.542Z,19.90
2022-08-08T08:20:04.505Z,19.90
2022-08-08T08:21:13.304Z,20.00
2022-08-08T08:22:31.231Z,20.10
2022-08-08T08:23:40.956Z,20.20
2022-08-08T08:24:46.257Z,20.30
2022-08-08T08:25:52.976Z,20.30
2022-08-08T08:26:58.354Z,20.30
2022-08-08T08:28:00.456Z,20.50
2022-08-08T08:29:05.239Z,20.50
2022-08-08T08:30:08.906Z,20.50
2022-08-08T08:31:10.848Z,20.60
2022-08-08T08:32:14.134Z,20.60
2022-08-08T08:33:34.528Z,20.60
2022-08-08T08:34:43.437Z,20.70
2022-08-08T08:36:18.764Z,20.70
2022-08-08T08:37:11.986Z,20.80
2022-08-08T08:38:18.953Z,20.90
2022-08-08T08:39:22.888Z,21.10
2022-08-08T08:40:25.602Z,21.20
2022-08-08T08:41:30.985Z,21.30
2022-08-08T08:42:35.537Z,21.30
2022-08-08T08:43:42.592Z,21.40
2022-08-08T08:44:48.243Z,21.50
2022-08-08T08:45:50.726Z,21.50
2022-08-08T08:47:00.646Z,21.60
2022-08-08T08:48:05.638Z,21.70
2022-08-08T08:49:10.860Z,21.90
2022-08-08T08:50:31.733Z,22.00
2022-08-08T08:51:51.103Z,22.20
2022-08-08T08:53:00.068Z,22.30
2022-08-08T08:54:08.382Z,22.50
2022-08-08T08:55:16.148Z,22.40
2022-08-08T08:56:25.066Z,22.50
2022-08-08T08:57:28.245Z,22.50
2022-08-08T08:58:32.939Z,22.70
2022-08-08T08:59:59.392Z,22.60
2022-08-08T09:01:08.756Z,22.70
2022-08-08T09:02:21.808Z,22.80
2022-08-08T09:03:45.523Z,22.80
2022-08-08T09:04:50.240Z,22.90
2022-08-08T09:05:56.230Z,22.80
2022-08-08T09:06:59.608Z,22.70
2022-08-08T09:08:12.718Z,22.80
2022-08-08T09:09:39.389Z,22.80
2022-08-08T09:10:48.305Z,23.00
2022-08-08T09:12:02.328Z,23.10
2022-08-08T09:13:10.992Z,23.20
2022-08-08T09:14:12.929Z,23.50
2022-08-08T09:15:15.097Z,23.50
2022-08-08T09:16:26.720Z,23.60
2022-08-08T09:17:40.872Z,23.80
2022-08-08T09:18:44.878Z,23.90
2022-08-08T09:22:00.139Z,24.10
2022-08-08T09:22:01.477Z,24.00
2022-08-08T09:22:34.502Z,24.00
2022-08-08T09:23:38.192Z,24.10
2022-08-08T09:24:43.550Z,24.30
2022-08-08T09:26:03.089Z,24.30
2022-08-08T09:27:20.353Z,24.40
2022-08-08T09:28:38.871Z,24.50
2022-08-08T09:30:04.267Z,24.50
2022-08-08T09:31:14.732Z,24.50
2022-08-08T09:32:20.863Z,24.50
2022-08-08T09:34:15.749Z,24.40
2022-08-08T09:34:51.363Z,24.50
2022-08-08T09:35:53.364Z,24.50
2022-08-08T09:37:39.587Z,24.50
2022-08-08T09:38:53.026Z,24.60
2022-08-08T09:40:11.309Z,24.60
2022-08-08T09:41:17.357Z,24.80
2022-08-08T09:42:26.063Z,24.90
2022-08-08T09:44:04.181Z,25.10
2022-08-08T09:45:15.735Z,25.10
2022-08-08T09:46:31.192Z,25.10
2022-08-08T09:48:10.007Z,25.30
2022-08-08T09:49:18.211Z,25.20
2022-08-08T09:50:28.111Z,25.20
2022-08-08T09:52:01.956Z,25.30
2022-08-08T09:52:59.302Z,25.30
2022-08-08T09:54:09.603Z,25.50
2022-08-08T09:55:51.560Z,25.70
2022-08-08T09:56:45.347Z,25.90
2022-08-08T09:57:55.462Z,25.90
2022-08-08T09:59:20.049Z,25.80
2022-08-08T10:00:47.844Z,25.80
2022-08-08T10:01:59.842Z,25.80
2022-08-08T10:03:05.713Z,26.00
2022-08-08T10:04:14.145Z,26.10
2022-08-08T10:05:23.129Z,26.20
2022-08-08T10:06:29.694Z,26.10
2022-08-08T10:07:36.023Z,26.10
2022-08-08T10:08:50.679Z,26.10
2022-08-08T10:10:00.433Z,26.20
2022-08-08T10:11:12.209Z,26.30
2022-08-08T10:12:38.821Z,26.30
2022-08-08T10:13:59.715Z,26.20
2022-08-08T10:15:17.171Z,26.20
2022-08-08T10:16:20.582Z,26.30
2022-08-08T10:17:56.281Z,26.40
2022-08-08T10:18:47.433Z,26.60
2022-08-08T10:19:59.930Z,26.60
2022-08-08T10:21:23.191Z,26.70
2022-08-08T10:22:30.039Z,26.90
2022-08-08T10:23:55.959Z,27.10
2022-08-08T10:25:07.133Z,27.20
2022-08-08T10:26:30.640Z,27.40
2022-08-08T10:27:43.421Z,27.40
2022-08-08T10:28:56.945Z,27.50
2022-08-08T10:30:05.781Z,27.40
2022-08-08T10:31:45.179Z,27.50
2022-08-08T10:32:57.367Z,27.60
2022-08-08T10:34:19.343Z,27.70
2022-08-08T10:36:09.490Z,27.80
2022-08-08T10:36:56.384Z,28.00
2022-08-08T10:38:05.285Z,27.90
2022-08-08T10:39:10.249Z,27.90
2022-08-08T10:40:19.854Z,27.70
2022-08-08T10:41:26.158Z,27.60
2022-08-08T10:42:44.766Z,27.40
2022-08-08T10:43:50.607Z,27.50
2022-08-08T10:45:01.452Z,27.50
2022-08-08T10:46:03.499Z,27.50
2022-08-08T10:47:15.752Z,27.60
2022-08-08T10:48:32.124Z,27.50
2022-08-08T10:50:01.740Z,27.20
2022-08-08T10:50:56.849Z,27.20
2022-08-08T10:51:58.453Z,27.40
2022-08-08T10:53:12.496Z,27.40
2022-08-08T10:54:21.566Z,27.20
2022-08-08T10:55:40.901Z,27.20
2022-08-08T10:56:44.206Z,27.20
2022-08-08T10:57:50.292Z,27.20
2022-08-08T10:59:00.914Z,27.30
2022-08-08T11:00:04.400Z,27.40
2022-08-08T11:01:11.045Z,27.50
2022-08-08T11:02:15.343Z,27.60
2022-08-08T11:03:19.164Z,27.70
2022-08-08T11:04:53.539Z,27.70
2022-08-08T11:06:00.581Z,27.70
2022-08-08T11:07:03.441Z,27.70
2022-08-08T11:08:37.139Z,27.80
2022-08-08T11:09:32.369Z,27.70
2022-08-08T11:10:35.096Z,27.70
2022-08-08T11:12:06.556Z,27.80
2022-08-08T11:13:28.604Z,28.00
2022-08-08T11:16:00.975Z,28.20
2022-08-08T11:17:14.983Z,28.20
2022-08-08T11:18:19.539Z,28.30
2022-08-08T11:22:30.761Z,28.50
2022-08-08T11:23:36.992Z,28.30
2022-08-08T11:24:39.658Z,28.20
2022-08-08T11:25:55.369Z,28.10
2022-08-08T11:27:19.176Z,28.10
2022-08-08T11:28:25.753Z,28.20
2022-08-08T11:29:51.161Z,28.40
2022-08-08T11:30:59.987Z,28.50
2022-08-08T11:32:05.138Z,28.50
2022-08-08T11:33:12.471Z,28.60
2022-08-08T11:34:23.466Z,28.50
2022-08-08T11:35:37.727Z,28.60
2022-08-08T11:36:44.958Z,28.70
2022-08-08T11:38:38.961Z,28.70
2022-08-08T11:39:19.963Z,28.80
2022-08-08T11:40:26.580Z,29.10
2022-08-08T11:41:33.595Z,29.10
2022-08-08T11:42:37.507Z,29.00
2022-08-08T11:43:42.674Z,29.20
2022-08-08T11:44:46.135Z,29.10
2022-08-08T11:46:09.598Z,29.20
2022-08-08T11:47:17.199Z,28.80
2022-08-08T11:48:20.903Z,28.80
2022-08-08T11:49:24.999Z,28.90
2022-08-08T11:50:31.378Z,28.90
2022-08-08T11:51:39.686Z,28.90
2022-08-08T11:52:47.220Z,29.00
2022-08-08T11:53:59.419Z,29.10
2022-08-08T11:55:17.693Z,29.10
2022-08-08T11:56:24.021Z,29.20
2022-08-08T11:57:30.255Z,29.40
2022-08-08T11:58:37.807Z,29.10
2022-08-08T12:00:12.195Z,29.30
2022-08-08T12:03:30.559Z,29.20
2022-08-08T12:04:48.437Z,29.40
2022-08-08T12:05:52.281Z,29.50
2022-08-08T12:07:04.515Z,29.50
2022-08-08T12:08:10.387Z,29.50
2022-08-08T12:10:50.426Z,29.60
2022-08-08T12:11:53.385Z,29.60
2022-08-08T12:13:09.987Z,29.70
2022-08-08T12:14:23.432Z,29.60
2022-08-08T12:15:42.704Z,29.70
2022-08-08T12:16:52.701Z,29.90
2022-08-08T12:19:16.374Z,30.10
2022-08-08T12:20:41.054Z,30.10
2022-08-08T12:22:00.317Z,30.20
2022-08-08T12:23:07.341Z,29.80
2022-08-08T12:24:29.726Z,29.90
2022-08-08T12:25:34.026Z,30.00
2022-08-08T12:26:49.994Z,30.00
2022-08-08T12:27:54.211Z,30.00
2022-08-08T12:29:02.100Z,30.00
2022-08-08T12:30:15.652Z,30.00
2022-08-08T12:31:39.339Z,29.90
2022-08-08T12:33:00.389Z,29.70
2022-08-08T12:34:21.756Z,29.50
2022-08-08T12:36:06.242Z,29.50
2022-08-08T12:37:12.494Z,29.80
2022-08-08T12:38:16.609Z,29.70
2022-08-08T12:40:00.602Z,29.50
2022-08-08T12:40:57.854Z,29.40
2022-08-08T12:42:04.727Z,29.80
2022-08-08T12:43:07.519Z,29.50
2022-08-08T12:44:32.319Z,29.30
2022-08-08T12:45:59.039Z,29.40
2022-08-08T12:47:02.723Z,29.40
2022-08-08T12:48:10.601Z,29.50
2022-08-08T12:49:43.140Z,29.70
2022-08-08T12:50:57.405Z,29.70
2022-08-08T12:52:28.167Z,29.70
2022-08-08T12:54:24.089Z,29.80
2022-08-08T12:55:35.513Z,29.60
2022-08-08T12:56:49.897Z,29.90
2022-08-08T12:57:56.648Z,30.00
2022-08-08T12:59:01.588Z,30.10
2022-08-08T13:00:12.122Z,30.20
2022-08-08T13:01:17.198Z,30.20
2022-08-08T13:02:30.074Z,30.30
2022-08-08T13:03:38.522Z,30.50
2022-08-08T13:04:51.285Z,30.60
2022-08-08T13:06:10.434Z,30.60
2022-08-08T13:07:17.040Z,30.70
2022-08-08T13:08:36.314Z,30.60
2022-08-08T13:10:05.321Z,30.60
2022-08-08T13:11:28.746Z,30.50
2022-08-08T13:12:53.086Z,30.80
2022-08-08T13:14:12.105Z,30.70
2022-08-08T13:15:36.417Z,30.60
2022-08-08T13:16:40.205Z,31.00
2022-08-08T13:17:53.915Z,31.10
2022-08-08T13:19:11.809Z,31.20
2022-08-08T13:20:21.186Z,31.20
2022-08-08T13:21:23.858Z,31.40
2022-08-08T13:22:38.506Z,31.20
2022-08-08T13:23:46.216Z,30.70
2022-08-08T13:24:49.194Z,30.40
2022-08-08T13:26:01.231Z,30.40
2022-08-08T13:27:12.265Z,30.40
2022-08-08T13:28:14.690Z,30.50
2022-08-08T13:29:21.034Z,30.80
2022-08-08T13:30:26.624Z,31.00
2022-08-08T13:31:30.991Z,30.90
2022-08-08T13:32:39.653Z,30.70
2022-08-08T13:33:43.494Z,30.80
2022-08-08T13:34:50.573Z,30.60
2022-08-08T13:35:55.903Z,30.80
2022-08-08T13:36:59.094Z,30.60
2022-08-08T13:38:08.139Z,30.60
2022-08-08T13:39:17.550Z,30.70
2022-08-08T13:40:27.158Z,30.80
2022-08-08T13:41:39.338Z,30.80
2022-08-08T13:42:45.913Z,30.80
2022-08-08T13:43:50.893Z,31.10
2022-08-08T13:44:58.321Z,31.40
2022-08-08T13:46:28.660Z,31.00
2022-08-08T13:47:31.315Z,30.80
2022-08-08T13:48:44.009Z,31.10
2022-08-08T13:50:35.129Z,31.40
2022-08-08T13:51:33.518Z,31.30
2022-08-08T13:52:48.544Z,31.50
2022-08-08T13:54:00.038Z,31.60
2022-08-08T13:55:06.067Z,31.60
2022-08-08T13:56:11.852Z,31.70
2022-08-08T13:57:16.486Z,31.70
2022-08-08T13:58:20.243Z,31.80
2022-08-08T13:59:48.662Z,31.50
2022-08-08T14:00:51.159Z,31.50
2022-08-08T14:01:57.269Z,31.40
2022-08-08T14:03:20.007Z,31.40
2022-08-08T14:04:28.580Z,31.80
2022-08-08T14:05:34.496Z,31.80
2022-08-08T14:06:45.576Z,31.80
2022-08-08T14:07:49.776Z,31.60
2022-08-08T14:08:56.682Z,31.40
2022-08-08T14:10:04.658Z,31.40
2022-08-08T14:11:17.952Z,31.20
2022-08-08T14:12:28.875Z,31.10
2022-08-08T14:13:34.108Z,31.40
2022-08-08T14:14:37.250Z,31.40
2022-08-08T14:15:50.186Z,31.30
2022-08-08T14:16:52.916Z,31.10
2022-08-08T14:18:34.634Z,31.20
2022-08-08T14:19:57.931Z,31.50
2022-08-08T14:21:03.791Z,31.20
2022-08-08T14:22:21.221Z,31.10
2022-08-08T14:24:03.930Z,30.60
2022-08-08T14:25:01.389Z,30.70
2022-08-08T14:26:10.866Z,31.00
2022-08-08T14:27:27.106Z,31.20
2022-08-08T14:28:30.871Z,31.50
2022-08-08T14:29:40.338Z,31.70
2022-08-08T14:30:42.558Z,31.90
2022-08-08T14:32:08.933Z,31.80
2022-08-08T14:33:25.600Z,31.90
2022-08-08T14:34:32.147Z,32.10
2022-08-08T14:35:36.210Z,32.20
2022-08-08T14:36:41.066Z,32.00
2022-08-08T14:37:59.767Z,31.80
2022-08-08T14:39:11.674Z,31.70
2022-08-08T14:40:26.541Z,31.80
2022-08-08T14:41:45.283Z,31.80
2022-08-08T14:42:56.993Z,31.90
2022-08-08T14:44:11.774Z,31.90
2022-08-08T14:45:15.135Z,31.70
2022-08-08T14:46:32.520Z,31.90
2022-08-08T14:47:51.275Z,32.00
2022-08-08T14:48:59.049Z,32.40
2022-08-08T14:50:16.362Z,32.10
2022-08-08T14:51:52.557Z,31.90
2022-08-08T14:53:09.756Z,31.40
2022-08-08T14:54:16.158Z,31.20
2022-08-08T14:55:41.082Z,31.10
2022-08-08T14:56:44.477Z,31.10
2022-08-08T14:58:03.119Z,31.40
2022-08-08T14:59:22.663Z,31.30
2022-08-08T15:00:37.644Z,31.40
2022-08-08T15:01:51.293Z,31.20
2022-08-08T15:03:15.580Z,31.20
2022-08-08T15:04:18.536Z,31.40
2022-08-08T15:05:22.736Z,31.40
2022-08-08T15:06:45.522Z,31.50
2022-08-08T15:07:53.832Z,31.50
2022-08-08T15:09:02.898Z,31.40
2022-08-08T15:10:09.909Z,31.40
2022-08-08T15:11:19.070Z,31.20
2022-08-08T15:12:27.815Z,31.40
2022-08-08T15:13:35.168Z,31.40
2022-08-08T15:14:43.074Z,31.50
2022-08-08T15:16:03.054Z,31.40
2022-08-08T15:17:05.720Z,30.90
2022-08-08T15:18:10.714Z,30.70
2022-08-08T15:19:15.064Z,30.80
2022-08-08T15:20:17.312Z,31.00
2022-08-08T15:21:21.033Z,31.10
2022-08-08T15:22:23.384Z,31.00
2022-08-08T15:23:33.018Z,31.00
2022-08-08T15:24:36.594Z,31.00
2022-08-08T15:25:38.434Z,31.10
2022-08-08T15:26:46.706Z,31.20
2022-08-08T15:28:03.971Z,31.40
2022-08-08T15:29:17.173Z,31.30
2022-08-08T15:30:19.955Z,31.20
2022-08-08T15:31:55.858Z,31.20
2022-08-08T15:32:44.329Z,31.10
2022-08-08T15:33:58.412Z,30.80
2022-08-08T15:35:01.747Z,30.70
2022-08-08T15:36:07.397Z,30.50
2022-08-08T15:37:09.536Z,30.70
2022-08-08T15:38:13.450Z,30.80
2022-08-08T15:39:15.537Z,30.90
2022-08-08T15:40:17.352Z,30.80
2022-08-08T15:41:24.616Z,30.90
2022-08-08T15:42:41.782Z,30.50
2022-08-08T15:43:43.795Z,30.20
2022-08-08T15:45:03.485Z,30.10
2022-08-08T15:46:05.504Z,30.20
2022-08-08T15:47:16.047Z,30.30
2022-08-08T15:48:21.103Z,30.50
2022-08-08T15:49:27.723Z,30.60
2022-08-08T15:50:52.332Z,30.80
2022-08-08T15:51:54.833Z,30.80
2022-08-08T15:52:58.821Z,30.80
2022-08-08T15:54:00.755Z,30.50
2022-08-08T15:55:02.709Z,30.30
2022-08-08T15:56:04.761Z,30.10
2022-08-08T15:57:10.705Z,30.20
2022-08-08T15:58:14.314Z,30.30
2022-08-08T15:59:16.979Z,30.30
2022-08-08T16:00:27.273Z,30.30
2022-08-08T16:01:40.920Z,30.40
2022-08-08T16:02:53.307Z,30.30
2022-08-08T16:03:57.641Z,30.30
2022-08-08T16:05:00.608Z,30.20
2022-08-08T16:06:03.580Z,30.20
2022-08-08T16:07:05.304Z,30.10
2022-08-08T16:08:12.330Z,29.90
2022-08-08T16:13:02.397Z,29.80
2022-08-08T16:13:08.883Z,29.50
2022-08-08T16:13:09.903Z,29.70
2022-08-08T16:13:34.165Z,29.40
2022-08-08T16:14:53.448Z,29.50
2022-08-08T16:15:57.545Z,29.60
2022-08-08T16:17:02.320Z,29.70